createdAt,value
2022-09-30T00:00:36.100Z,35.03
2022-09-30T00:01:36.118Z,43.96
2022-09-30T00:02:36.112Z,41.13
2022-09-30T00:03:36.046Z,39.43
2022-09-30T00:04:36.045Z,35.24
2022-09-30T00:05:36.063Z,46.54
2022-09-30T00:06:36.028Z,35.40
2022-09-30T00:07:36.020Z,39.15
2022-09-30T00:08:36.013Z,52.71
2022-09-30T00:09:36.090Z,44.77
2022-09-30T00:10:36.023Z,39.44
2022-09-30T00:11:35.990Z,41.59
2022-09-30T00:12:35.981Z,37.88
2022-09-30T00:13:35.973Z,44.99
2022-09-30T00:14:35.964Z,45.83
2022-09-30T00:15:35.991Z,48.08
2022-09-30T00:16:36.009Z,41.36
2022-09-30T00:17:35.939Z,34.71
2022-09-30T00:18:35.927Z,39.95
2022-09-30T00:19:35.924Z,34.69
2022-09-30T00:20:35.938Z,49.18
2022-09-30T00:21:35.904Z,38.44
2022-09-30T00:22:35.895Z,48.78
2022-09-30T00:23:35.887Z,57.42
2022-09-30T00:24:35.882Z,42.33
2022-09-30T00:25:35.872Z,41.80
2022-09-30T00:26:35.890Z,44.52
2022-09-30T00:27:35.857Z,50.13
2022-09-30T00:28:35.850Z,37.20
2022-09-30T00:29:35.844Z,53.49
2022-09-30T00:30:35.834Z,39.28
2022-09-30T00:31:35.934Z,47.43
2022-09-30T00:32:35.818Z,46.16
2022-09-30T00:33:35.809Z,33.76
2022-09-30T00:34:35.811Z,33.48
2022-09-30T00:35:35.793Z,46.27
2022-09-30T00:36:35.815Z,49.78
2022-09-30T00:37:35.776Z,44.74
2022-09-30T00:38:35.768Z,43.42
2022-09-30T00:39:35.763Z,50.31
2022-09-30T00:40:35.759Z,35.19
2022-09-30T00:41:35.774Z,35.82
2022-09-30T00:42:36.735Z,41.04
2022-09-30T00:43:35.729Z,40.05
2022-09-30T00:44:35.723Z,53.67
2022-09-30T00:45:35.712Z,42.84
2022-09-30T00:46:35.801Z,39.03
2022-09-30T00:47:35.699Z,53.10
2022-09-30T00:48:35.692Z,55.92
2022-09-30T00:49:35.682Z,47.15
2022-09-30T00:50:35.679Z,43.24
2022-09-30T00:51:35.692Z,49.43
2022-09-30T00:52:35.661Z,54.80
2022-09-30T00:53:35.650Z,52.29
2022-09-30T00:54:35.649Z,39.97
2022-09-30T00:55:35.638Z,46.63
2022-09-30T00:56:35.656Z,47.89
2022-09-30T00:57:35.625Z,44.45
2022-09-30T00:58:35.605Z,44.31
2022-09-30T00:59:35.600Z,48.07
2022-09-30T01:00:35.720Z,54.99
2022-09-30T01:01:35.662Z,48.75
2022-09-30T01:02:35.576Z,43.35
2022-09-30T01:03:35.594Z,45.76
2022-09-30T01:04:35.563Z,35.73
2022-09-30T01:05:35.556Z,38.55
2022-09-30T01:06:35.570Z,48.19
2022-09-30T01:07:35.536Z,38.14
2022-09-30T01:08:35.526Z,56.47
2022-09-30T01:09:35.638Z,35.50
2022-09-30T01:10:35.514Z,40.27
2022-09-30T01:11:35.529Z,47.80
2022-09-30T01:12:35.494Z,35.37
2022-09-30T01:13:35.490Z,45.44
2022-09-30T01:14:35.478Z,38.38
2022-09-30T01:15:35.470Z,46.66
2022-09-30T01:16:35.504Z,56.59
2022-09-30T01:17:35.460Z,49.89
2022-09-30T01:18:35.442Z,47.85
2022-09-30T01:19:35.435Z,49.83
2022-09-30T01:20:35.436Z,41.76
2022-09-30T01:21:35.450Z,46.26
2022-09-30T01:22:39.975Z,52.80
2022-09-30T01:23:37.407Z,43.29
2022-09-30T01:24:35.402Z,42.39
2022-09-30T01:25:35.393Z,56.90
2022-09-30T01:26:35.415Z,53.20
2022-09-30T01:27:35.377Z,51.81
2022-09-30T01:28:35.374Z,50.88
2022-09-30T01:29:35.362Z,50.58
2022-09-30T01:30:35.359Z,51.74
2022-09-30T01:31:35.418Z,40.49
2022-09-30T01:32:35.370Z,49.06
2022-09-30T01:33:35.334Z,40.82
2022-09-30T01:34:35.327Z,54.91
2022-09-30T01:35:35.320Z,53.37
2022-09-30T01:36:35.311Z,44.23
2022-09-30T01:37:35.325Z,56.28
2022-09-30T01:38:35.297Z,44.04
2022-09-30T01:39:35.279Z,43.17
2022-09-30T01:40:35.278Z,39.54
2022-09-30T01:41:35.266Z,34.15
2022-09-30T01:42:35.286Z,34.46
2022-09-30T01:43:35.254Z,42.77
2022-09-30T01:44:35.248Z,53.32
2022-09-30T01:45:35.247Z,48.08
2022-09-30T01:46:35.301Z,43.69
2022-09-30T01:47:35.250Z,46.47
2022-09-30T01:48:35.225Z,46.59
2022-09-30T01:49:35.212Z,52.66
2022-09-30T01:50:35.202Z,36.95
2022-09-30T01:51:35.191Z,46.79
2022-09-30T01:52:35.211Z,51.12
2022-09-30T01:53:35.180Z,47.43
2022-09-30T01:54:35.169Z,35.63
2022-09-30T01:55:35.161Z,46.39
2022-09-30T01:56:35.152Z,45.34
2022-09-30T01:57:35.172Z,42.69
2022-09-30T01:58:35.138Z,43.48
2022-09-30T01:59:35.130Z,53.36
2022-09-30T02:00:35.224Z,53.71
2022-09-30T02:01:35.111Z,47.13
2022-09-30T02:02:35.128Z,49.96
2022-09-30T02:03:35.094Z,43.99
2022-09-30T02:04:35.088Z,33.87
2022-09-30T02:05:35.081Z,42.87
2022-09-30T02:06:35.080Z,56.30
2022-09-30T02:07:35.085Z,53.59
2022-09-30T02:08:35.053Z,48.57
2022-09-30T02:09:35.079Z,49.00
2022-09-30T02:10:35.042Z,56.51
2022-09-30T02:11:35.032Z,54.22
2022-09-30T02:12:35.063Z,48.54
2022-09-30T02:13:35.026Z,58.87
2022-09-30T02:14:35.011Z,45.63
2022-09-30T02:15:39.705Z,45.11
2022-09-30T02:16:37.066Z,53.81
2022-09-30T02:17:35.006Z,36.95
2022-09-30T02:18:34.976Z,50.10
2022-09-30T02:19:34.971Z,40.03
2022-09-30T02:20:34.962Z,42.09
2022-09-30T02:21:34.955Z,51.63
2022-09-30T02:22:34.974Z,37.15
2022-09-30T02:23:34.940Z,51.11
2022-09-30T02:24:34.932Z,52.49
2022-09-30T02:25:34.923Z,37.73
2022-09-30T02:26:34.915Z,54.27
2022-09-30T02:27:34.948Z,54.72
2022-09-30T02:28:34.897Z,50.46
2022-09-30T02:29:34.896Z,53.05
2022-09-30T02:30:34.889Z,40.59
2022-09-30T02:31:34.927Z,44.94
2022-09-30T02:32:34.958Z,47.64
2022-09-30T02:33:34.863Z,36.22
2022-09-30T02:34:34.850Z,49.99
2022-09-30T02:35:34.848Z,50.42
2022-09-30T02:36:34.831Z,45.13
2022-09-30T02:37:34.951Z,47.13
2022-09-30T02:38:34.818Z,42.75
2022-09-30T02:39:34.809Z,57.59
2022-09-30T02:40:34.798Z,57.20
2022-09-30T02:41:34.792Z,51.49
2022-09-30T02:42:34.808Z,59.10
2022-09-30T02:43:34.770Z,51.83
2022-09-30T02:44:34.755Z,53.75
2022-09-30T02:45:35.757Z,55.64
2022-09-30T02:46:34.819Z,43.49
2022-09-30T02:47:34.958Z,53.76
2022-09-30T02:48:34.744Z,54.56
2022-09-30T02:49:34.729Z,48.78
2022-09-30T02:50:34.725Z,35.63
2022-09-30T02:51:34.714Z,43.56
2022-09-30T02:52:34.738Z,47.84
2022-09-30T02:53:34.696Z,50.13
2022-09-30T02:54:34.694Z,51.01
2022-09-30T02:55:34.681Z,57.97
2022-09-30T02:56:34.676Z,52.52
2022-09-30T02:57:34.668Z,52.60
2022-09-30T02:58:34.678Z,38.26
2022-09-30T02:59:34.670Z,44.59
2022-09-30T03:00:34.680Z,57.52
2022-09-30T03:01:34.671Z,49.12
2022-09-30T03:02:34.626Z,53.93
2022-09-30T03:03:34.644Z,51.59
2022-09-30T03:04:34.609Z,49.99
2022-09-30T03:05:34.599Z,42.72
2022-09-30T03:06:34.595Z,57.81
2022-09-30T03:07:34.591Z,54.47
2022-09-30T03:08:34.609Z,57.68
2022-09-30T03:09:34.674Z,54.14
2022-09-30T03:10:34.565Z,46.92
2022-09-30T03:11:34.549Z,59.42
2022-09-30T03:12:34.546Z,52.83
2022-09-30T03:13:34.567Z,53.21
2022-09-30T03:14:34.541Z,60.21
2022-09-30T03:15:34.519Z,61.24
2022-09-30T03:16:34.531Z,53.58
2022-09-30T03:17:34.509Z,47.86
2022-09-30T03:18:34.523Z,57.89
2022-09-30T03:19:34.491Z,58.27
2022-09-30T03:20:34.485Z,58.53
2022-09-30T03:21:34.477Z,53.70
2022-09-30T03:22:34.469Z,61.82
2022-09-30T03:23:34.485Z,58.88
2022-09-30T03:24:34.453Z,53.16
2022-09-30T03:25:34.442Z,60.88
2022-09-30T03:26:34.433Z,52.14
2022-09-30T03:27:34.434Z,58.58
2022-09-30T03:28:34.445Z,57.16
2022-09-30T03:29:34.405Z,57.52
2022-09-30T03:30:34.406Z,56.72
2022-09-30T03:31:34.442Z,56.91
2022-09-30T03:32:34.385Z,54.41
2022-09-30T03:33:34.403Z,54.52
2022-09-30T03:34:34.376Z,62.50
2022-09-30T03:35:34.371Z,55.41
2022-09-30T03:36:34.350Z,56.34
2022-09-30T03:37:34.347Z,59.13
2022-09-30T03:38:34.364Z,55.37
2022-09-30T03:39:34.328Z,53.24
2022-09-30T03:40:34.320Z,60.64
2022-09-30T03:41:34.313Z,57.08
2022-09-30T03:42:34.301Z,51.47
2022-09-30T03:43:34.325Z,57.72
2022-09-30T03:44:34.288Z,53.58
2022-09-30T03:45:34.284Z,60.19
2022-09-30T03:46:34.315Z,54.76
2022-09-30T03:47:34.261Z,57.07
2022-09-30T03:48:34.286Z,59.48
2022-09-30T03:49:34.242Z,57.67
2022-09-30T03:50:34.232Z,55.34
2022-09-30T03:51:34.225Z,52.41
2022-09-30T03:52:34.222Z,60.09
2022-09-30T03:53:34.240Z,54.06
2022-09-30T03:54:34.215Z,58.06
2022-09-30T03:55:34.200Z,55.06
2022-09-30T03:56:34.191Z,55.30
2022-09-30T03:57:34.181Z,56.26
2022-09-30T03:58:34.201Z,58.83
2022-09-30T03:59:34.176Z,53.12
2022-09-30T04:00:34.242Z,55.50
2022-09-30T04:01:34.200Z,57.96
2022-09-30T04:02:34.141Z,51.20
2022-09-30T04:03:34.156Z,59.06
2022-09-30T04:04:34.129Z,58.78
2022-09-30T04:05:34.121Z,60.11
2022-09-30T04:06:34.122Z,56.22
2022-09-30T04:07:34.108Z,58.63
2022-09-30T04:08:34.134Z,56.98
2022-09-30T04:09:34.117Z,62.09
2022-09-30T04:10:34.082Z,56.99
2022-09-30T04:11:34.072Z,55.46
2022-09-30T04:12:34.071Z,59.48
2022-09-30T04:13:34.088Z,58.26
2022-09-30T04:14:34.055Z,59.20
2022-09-30T04:15:34.052Z,58.66
2022-09-30T04:16:34.079Z,60.77
2022-09-30T04:17:34.032Z,60.70
2022-09-30T04:18:34.053Z,57.07
2022-09-30T04:19:34.012Z,60.41
2022-09-30T04:20:34.024Z,60.25
2022-09-30T04:21:33.997Z,56.78
2022-09-30T04:22:33.994Z,58.28
2022-09-30T04:23:34.002Z,60.97
2022-09-30T04:24:33.971Z,60.25
2022-09-30T04:25:33.966Z,59.08
2022-09-30T04:26:33.957Z,58.43
2022-09-30T04:27:33.989Z,60.59
2022-09-30T04:28:33.947Z,55.30
2022-09-30T04:29:33.939Z,60.74
2022-09-30T04:30:33.946Z,63.45
2022-09-30T04:31:33.965Z,58.74
2022-09-30T04:32:33.941Z,58.91
2022-09-30T04:33:33.902Z,60.06
2022-09-30T04:34:33.905Z,61.22
2022-09-30T04:35:33.896Z,58.71
2022-09-30T04:36:33.884Z,58.84
2022-09-30T04:37:33.902Z,59.52
2022-09-30T04:38:33.866Z,62.28
2022-09-30T04:39:33.860Z,57.95
2022-09-30T04:40:33.846Z,56.73
2022-09-30T04:41:33.843Z,61.15
2022-09-30T04:42:33.835Z,60.20
2022-09-30T04:43:33.856Z,60.46
2022-09-30T04:44:33.815Z,58.16
2022-09-30T04:45:33.865Z,56.04
2022-09-30T04:46:33.807Z,59.88
2022-09-30T04:47:33.790Z,59.60
2022-09-30T04:48:33.813Z,62.71
2022-09-30T04:49:33.773Z,61.83
2022-09-30T04:50:33.773Z,57.95
2022-09-30T04:51:33.754Z,62.70
2022-09-30T04:52:33.743Z,61.23
2022-09-30T04:53:33.774Z,61.18
2022-09-30T04:54:33.737Z,61.83
2022-09-30T04:55:33.727Z,61.30
2022-09-30T04:56:33.718Z,60.02
2022-09-30T04:57:33.833Z,58.56
2022-09-30T04:58:37.046Z,58.66
2022-09-30T04:59:34.692Z,61.01
2022-09-30T05:00:33.738Z,60.76
2022-09-30T05:01:33.687Z,60.95
2022-09-30T05:02:33.682Z,61.82
2022-09-30T05:03:33.694Z,60.61
2022-09-30T05:04:33.659Z,61.28
2022-09-30T05:05:33.655Z,61.53
2022-09-30T05:06:33.641Z,61.83
2022-09-30T05:07:33.641Z,62.20
2022-09-30T05:08:33.650Z,61.90
2022-09-30T05:09:33.652Z,62.26
2022-09-30T05:10:33.619Z,62.49
2022-09-30T05:11:33.612Z,62.72
2022-09-30T05:12:33.595Z,54.12
2022-09-30T05:13:33.615Z,58.99
2022-09-30T05:14:33.581Z,61.08
2022-09-30T05:15:33.577Z,65.10
2022-09-30T05:16:33.666Z,61.84
2022-09-30T05:17:33.564Z,59.82
2022-09-30T05:18:33.575Z,61.03
2022-09-30T05:19:33.535Z,60.43
2022-09-30T05:20:33.526Z,64.39
2022-09-30T05:21:33.528Z,62.81
2022-09-30T05:22:33.524Z,60.95
2022-09-30T05:23:33.539Z,62.07
2022-09-30T05:24:33.501Z,64.93
2022-09-30T05:25:33.489Z,62.34
2022-09-30T05:26:33.493Z,56.98
2022-09-30T05:27:33.472Z,57.46
2022-09-30T05:28:33.494Z,60.79
2022-09-30T05:29:33.463Z,62.13
2022-09-30T05:30:33.447Z,63.81
2022-09-30T05:31:33.483Z,64.46
2022-09-30T05:32:33.431Z,59.08
2022-09-30T05:33:33.459Z,61.87
2022-09-30T05:34:33.418Z,61.84
2022-09-30T05:35:33.407Z,60.37
2022-09-30T05:36:33.402Z,56.18
2022-09-30T05:37:33.399Z,61.40
2022-09-30T05:38:33.429Z,63.38
2022-09-30T05:39:33.380Z,59.55
2022-09-30T05:40:33.375Z,60.87
2022-09-30T05:41:33.369Z,63.23
2022-09-30T05:42:33.362Z,58.06
2022-09-30T05:43:33.375Z,63.75
2022-09-30T05:44:33.349Z,64.02
2022-09-30T05:45:33.333Z,63.29
2022-09-30T05:46:33.413Z,59.81
2022-09-30T05:47:33.316Z,63.54
2022-09-30T05:48:33.346Z,61.74
2022-09-30T05:49:33.304Z,61.14
2022-09-30T05:50:33.297Z,61.32
2022-09-30T05:51:33.352Z,60.16
2022-09-30T05:52:33.287Z,61.93
2022-09-30T05:53:33.297Z,61.03
2022-09-30T05:54:33.265Z,57.90
2022-09-30T05:55:38.366Z,58.61
2022-09-30T05:56:35.245Z,58.84
2022-09-30T05:57:33.244Z,61.71
2022-09-30T05:58:33.266Z,64.21
2022-09-30T05:59:33.229Z,57.41
2022-09-30T06:00:33.219Z,63.49
2022-09-30T06:01:33.231Z,62.89
2022-09-30T06:02:33.295Z,62.98
2022-09-30T06:03:33.225Z,61.00
2022-09-30T06:04:33.184Z,62.24
2022-09-30T06:05:33.182Z,57.51
2022-09-30T06:06:33.174Z,60.40
2022-09-30T06:07:33.170Z,58.52
2022-09-30T06:08:33.187Z,63.61
2022-09-30T06:09:33.193Z,60.81
2022-09-30T06:10:33.143Z,60.48
2022-09-30T06:11:33.128Z,63.04
2022-09-30T06:12:33.123Z,61.61
2022-09-30T06:13:33.120Z,65.46
2022-09-30T06:14:33.131Z,63.73
2022-09-30T06:15:33.093Z,58.61
2022-09-30T06:16:34.155Z,64.08
2022-09-30T06:17:33.085Z,63.32
2022-09-30T06:18:33.074Z,61.18
2022-09-30T06:19:33.094Z,64.80
2022-09-30T06:20:33.054Z,60.74
2022-09-30T06:21:33.054Z,62.62
2022-09-30T06:22:33.041Z,64.23
2022-09-30T06:23:33.049Z,64.65
2022-09-30T06:24:34.048Z,60.61
2022-09-30T06:25:33.022Z,63.23
2022-09-30T06:26:33.009Z,64.13
2022-09-30T06:27:33.003Z,64.90
2022-09-30T06:28:32.998Z,62.90
2022-09-30T06:29:33.018Z,58.92
2022-09-30T06:30:35.263Z,64.00
2022-09-30T06:31:34.011Z,60.12
2022-09-30T06:32:32.962Z,61.52
2022-09-30T06:33:32.958Z,59.93
2022-09-30T06:34:32.973Z,59.17
2022-09-30T06:35:32.942Z,61.72
2022-09-30T06:36:32.935Z,58.09
2022-09-30T06:37:32.925Z,61.61
2022-09-30T06:38:32.922Z,61.49
2022-09-30T06:39:32.934Z,61.55
2022-09-30T06:40:32.898Z,58.75
2022-09-30T06:41:32.892Z,60.33
2022-09-30T06:42:32.872Z,58.72
2022-09-30T06:43:41.527Z,62.01
2022-09-30T06:44:40.673Z,63.12
2022-09-30T06:45:34.065Z,63.61
2022-09-30T06:46:34.026Z,64.51
2022-09-30T06:47:32.897Z,63.67
2022-09-30T06:48:38.315Z,61.01
2022-09-30T06:49:46.340Z,61.27
2022-09-30T06:50:34.821Z,65.07
2022-09-30T06:51:32.817Z,59.95
2022-09-30T06:52:32.810Z,62.41
2022-09-30T06:53:32.831Z,61.41
2022-09-30T06:54:32.825Z,61.64
2022-09-30T06:55:32.795Z,65.31
2022-09-30T06:56:32.783Z,63.06
2022-09-30T06:57:32.773Z,63.21
2022-09-30T06:58:32.767Z,61.95
2022-09-30T06:59:32.787Z,62.78
2022-09-30T07:00:32.768Z,64.83
2022-09-30T07:01:32.742Z,63.96
2022-09-30T07:02:32.755Z,63.52
2022-09-30T07:03:32.716Z,63.18
2022-09-30T07:04:33.750Z,64.24
2022-09-30T07:05:32.714Z,65.21
2022-09-30T07:06:32.706Z,61.81
2022-09-30T07:07:32.702Z,63.89
2022-09-30T07:08:32.693Z,63.66
2022-09-30T07:09:32.743Z,61.26
2022-09-30T07:10:32.671Z,63.91
2022-09-30T07:11:32.672Z,62.04
2022-09-30T07:12:32.669Z,64.87
2022-09-30T07:13:32.648Z,61.76
2022-09-30T07:14:32.658Z,59.55
2022-09-30T07:15:32.727Z,62.16
2022-09-30T07:16:32.645Z,61.09
2022-09-30T07:17:32.627Z,66.40
2022-09-30T07:18:32.612Z,59.07
2022-09-30T07:19:32.624Z,62.55
2022-09-30T07:20:32.594Z,61.81
2022-09-30T07:21:32.588Z,62.75
2022-09-30T07:22:32.577Z,63.97
2022-09-30T07:23:32.565Z,61.50
2022-09-30T07:24:32.582Z,62.67
2022-09-30T07:25:32.555Z,63.87
2022-09-30T07:26:32.542Z,61.66
2022-09-30T07:27:32.539Z,64.08
2022-09-30T07:28:32.536Z,62.76
2022-09-30T07:29:50.148Z,66.66
2022-09-30T07:30:34.521Z,58.96
2022-09-30T07:31:34.675Z,64.12
2022-09-30T07:32:33.541Z,59.82
2022-09-30T07:33:32.507Z,57.56
2022-09-30T07:34:32.517Z,64.57
2022-09-30T07:35:32.479Z,58.58
2022-09-30T07:36:33.737Z,67.37
2022-09-30T07:37:33.467Z,58.60
2022-09-30T07:38:32.485Z,66.04
2022-09-30T07:39:32.476Z,61.47
2022-09-30T07:40:32.450Z,63.95
2022-09-30T07:41:32.434Z,63.67
2022-09-30T07:42:32.423Z,60.64
2022-09-30T07:43:32.419Z,66.66
2022-09-30T07:44:32.435Z,61.04
2022-09-30T07:45:32.484Z,67.03
2022-09-30T07:46:32.397Z,62.24
2022-09-30T07:47:32.385Z,63.69
2022-09-30T07:48:32.377Z,64.86
2022-09-30T07:49:32.547Z,62.06
2022-09-30T07:50:32.364Z,65.42
2022-09-30T07:51:32.358Z,60.14
2022-09-30T07:52:32.345Z,65.93
2022-09-30T07:53:32.333Z,63.35
2022-09-30T07:54:32.354Z,62.21
2022-09-30T07:55:32.329Z,66.33
2022-09-30T07:56:51.205Z,58.61
2022-09-30T07:57:34.312Z,65.90
2022-09-30T07:58:32.298Z,65.92
2022-09-30T07:59:32.334Z,67.72
2022-09-30T08:00:42.710Z,66.16
2022-09-30T08:01:34.334Z,60.50
2022-09-30T08:02:32.322Z,69.53
2022-09-30T08:03:32.262Z,60.00
2022-09-30T08:04:32.287Z,63.88
2022-09-30T08:05:32.245Z,67.76
2022-09-30T08:06:32.243Z,60.20
2022-09-30T08:07:32.237Z,67.38
2022-09-30T08:08:32.228Z,63.03
2022-09-30T08:09:32.293Z,68.30
2022-09-30T08:10:32.257Z,61.61
2022-09-30T08:11:32.205Z,59.97
2022-09-30T08:12:32.194Z,65.25
2022-09-30T08:13:32.187Z,62.82
2022-09-30T08:14:32.214Z,68.00
2022-09-30T08:15:32.177Z,61.56
2022-09-30T08:16:32.200Z,65.53
2022-09-30T08:17:32.153Z,63.08
2022-09-30T08:18:32.152Z,65.61
2022-09-30T08:19:32.577Z,68.12
2022-09-30T08:20:32.131Z,65.44
2022-09-30T08:21:32.122Z,68.08
2022-09-30T08:22:32.118Z,61.30
2022-09-30T08:23:32.118Z,65.02
2022-09-30T08:24:32.235Z,60.15
2022-09-30T08:25:32.092Z,61.10
2022-09-30T08:26:32.081Z,64.27
2022-09-30T08:27:32.093Z,61.53
2022-09-30T08:28:32.071Z,64.29
2022-09-30T08:30:34.047Z,66.64
2022-09-30T08:31:32.068Z,60.67
2022-09-30T08:32:32.036Z,56.23
2022-09-30T08:33:32.031Z,63.62
2022-09-30T08:34:32.048Z,62.96
2022-09-30T08:35:32.016Z,66.18
2022-09-30T08:36:32.000Z,60.76
2022-09-30T08:37:32.003Z,60.44
2022-09-30T08:38:31.987Z,63.65
2022-09-30T08:39:32.011Z,56.97
2022-09-30T08:40:31.967Z,63.94
2022-09-30T08:41:31.963Z,59.75
2022-09-30T08:42:37.199Z,64.90
2022-09-30T08:43:33.951Z,61.07
2022-09-30T08:44:31.961Z,63.77
2022-09-30T08:45:31.996Z,64.96
2022-09-30T08:46:31.983Z,61.58
2022-09-30T08:47:31.917Z,63.19
2022-09-30T08:48:31.904Z,59.56
2022-09-30T08:49:31.920Z,58.67
2022-09-30T08:50:31.890Z,63.43
2022-09-30T08:51:31.883Z,62.76
2022-09-30T08:52:47.905Z,63.08
2022-09-30T08:53:33.870Z,60.15
2022-09-30T08:54:32.976Z,62.98
2022-09-30T08:55:31.859Z,62.37
2022-09-30T08:56:31.843Z,60.47
2022-09-30T08:57:31.838Z,62.26
2022-09-30T08:58:31.822Z,60.53
2022-09-30T08:59:31.843Z,60.42
2022-09-30T09:00:31.806Z,61.00
2022-09-30T09:01:31.885Z,65.30
2022-09-30T09:02:31.851Z,60.72
2022-09-30T09:03:31.785Z,58.66
2022-09-30T09:04:31.867Z,60.72
2022-09-30T09:05:31.768Z,60.34
2022-09-30T09:06:31.765Z,62.21
2022-09-30T09:07:31.752Z,61.01
2022-09-30T09:08:31.747Z,59.97
2022-09-30T09:09:31.764Z,60.79
2022-09-30T09:10:31.727Z,63.27
2022-09-30T09:11:31.727Z,64.76
2022-09-30T09:12:31.717Z,58.27
2022-09-30T09:13:31.713Z,59.22
2022-09-30T09:14:31.742Z,61.25
2022-09-30T09:15:31.702Z,63.93
2022-09-30T09:16:31.733Z,59.53
2022-09-30T09:17:31.680Z,60.40
2022-09-30T09:18:31.677Z,63.47
2022-09-30T09:19:31.684Z,60.56
2022-09-30T09:20:31.653Z,58.81
2022-09-30T09:21:31.647Z,60.76
2022-09-30T09:22:31.663Z,59.78
2022-09-30T09:23:31.634Z,57.27
2022-09-30T09:24:31.654Z,59.47
2022-09-30T09:25:31.614Z,61.11
2022-09-30T09:26:31.611Z,61.12
2022-09-30T09:27:31.783Z,62.66
2022-09-30T09:28:31.671Z,61.91
2022-09-30T09:29:31.630Z,60.46
2022-09-30T09:30:31.587Z,61.21
2022-09-30T09:31:31.618Z,60.75
2022-09-30T09:32:31.560Z,61.30
2022-09-30T09:33:31.554Z,59.26
2022-09-30T09:34:31.548Z,61.33
2022-09-30T09:35:31.561Z,59.88
2022-09-30T09:36:31.532Z,59.05
2022-09-30T09:37:31.524Z,59.03
2022-09-30T09:38:31.519Z,59.92
2022-09-30T09:39:31.508Z,57.74
2022-09-30T09:40:31.529Z,59.15
2022-09-30T09:41:31.489Z,66.72
2022-09-30T09:42:31.525Z,62.98
2022-09-30T09:43:31.484Z,61.34
2022-09-30T09:44:31.470Z,60.40
2022-09-30T09:45:31.556Z,65.49
2022-09-30T09:46:31.470Z,60.47
2022-09-30T09:47:31.437Z,63.18
2022-09-30T09:48:32.457Z,60.12
2022-09-30T09:49:31.430Z,60.51
2022-09-30T09:50:31.449Z,64.29
2022-09-30T09:51:31.411Z,55.49
2022-09-30T09:52:31.408Z,56.07
2022-09-30T09:53:31.401Z,60.92
2022-09-30T09:54:31.395Z,57.71
2022-09-30T09:55:31.409Z,59.37
2022-09-30T09:56:32.651Z,57.42
2022-09-30T09:57:32.458Z,60.37
2022-09-30T09:58:31.362Z,57.55
2022-09-30T09:59:31.352Z,56.33
2022-09-30T10:00:31.383Z,54.94
2022-09-30T10:01:31.434Z,58.19
2022-09-30T10:02:31.354Z,57.60
2022-09-30T10:03:31.322Z,60.39
2022-09-30T10:04:31.313Z,61.07
2022-09-30T10:05:31.335Z,58.93
2022-09-30T10:06:31.298Z,57.88
2022-09-30T10:07:31.289Z,57.65
2022-09-30T10:08:31.282Z,58.40
2022-09-30T10:09:31.276Z,58.88
2022-09-30T10:10:31.259Z,56.19
2022-09-30T10:11:31.279Z,59.11
2022-09-30T10:12:31.250Z,59.42
2022-09-30T10:13:31.256Z,62.99
2022-09-30T10:14:31.237Z,58.08
2022-09-30T10:15:31.225Z,54.38
2022-09-30T10:16:31.241Z,55.78
2022-09-30T10:17:31.204Z,60.47
2022-09-30T10:18:31.201Z,57.95
2022-09-30T10:19:31.189Z,57.86
2022-09-30T10:20:31.184Z,54.10
2022-09-30T10:21:31.203Z,56.94
2022-09-30T10:22:31.166Z,60.26
2022-09-30T10:23:31.160Z,58.67
2022-09-30T10:24:31.153Z,56.13
2022-09-30T10:25:31.711Z,58.18
2022-09-30T10:26:31.164Z,56.04
2022-09-30T10:27:31.125Z,58.92
2022-09-30T10:28:31.209Z,55.94
2022-09-30T10:29:31.766Z,59.93
2022-09-30T10:30:31.106Z,59.25
2022-09-30T10:31:31.212Z,58.39
2022-09-30T10:32:31.084Z,56.41
2022-09-30T10:33:31.080Z,60.08
2022-09-30T10:34:31.138Z,55.51
2022-09-30T10:35:31.062Z,55.90
2022-09-30T10:36:31.069Z,58.70
2022-09-30T10:37:32.045Z,59.36
2022-09-30T10:38:31.090Z,60.03
2022-09-30T10:39:31.037Z,59.08
2022-09-30T10:40:31.021Z,56.17
2022-09-30T10:41:31.036Z,57.59
2022-09-30T10:42:31.009Z,55.79
2022-09-30T10:43:30.997Z,58.93
2022-09-30T10:44:30.986Z,61.82
2022-09-30T10:45:31.009Z,58.28
2022-09-30T10:46:31.062Z,54.34
2022-09-30T10:47:36.382Z,60.79
2022-09-30T10:48:32.959Z,58.94
2022-09-30T10:49:30.943Z,58.63
2022-09-30T10:50:30.943Z,59.71
2022-09-30T10:51:30.955Z,57.44
2022-09-30T10:52:30.926Z,54.31
2022-09-30T10:53:30.912Z,56.78
2022-09-30T10:54:30.906Z,58.79
2022-09-30T10:55:30.896Z,59.54
2022-09-30T10:56:30.916Z,54.10
2022-09-30T10:57:30.878Z,58.05
2022-09-30T10:58:30.871Z,56.04
2022-09-30T10:59:31.512Z,59.18
2022-09-30T11:00:30.861Z,60.55
2022-09-30T11:01:31.256Z,60.59
2022-09-30T11:02:30.854Z,60.89
2022-09-30T11:03:30.921Z,66.61
2022-09-30T11:04:30.824Z,60.68
2022-09-30T11:05:30.828Z,59.71
2022-09-30T11:06:30.809Z,60.71
2022-09-30T11:07:30.828Z,62.32
2022-09-30T11:08:30.789Z,64.60
2022-09-30T11:09:30.785Z,54.53
2022-09-30T11:10:30.795Z,57.95
2022-09-30T11:11:30.769Z,57.65
2022-09-30T11:12:30.787Z,58.91
2022-09-30T11:13:30.754Z,57.80
2022-09-30T11:14:30.748Z,56.66
2022-09-30T11:15:30.749Z,58.64
2022-09-30T11:16:31.301Z,55.87
2022-09-30T11:17:30.743Z,58.85
2022-09-30T11:18:30.714Z,58.40
2022-09-30T11:19:30.707Z,55.22
2022-09-30T11:20:30.697Z,56.54
2022-09-30T11:21:30.688Z,57.26
2022-09-30T11:22:30.710Z,58.05
2022-09-30T11:23:30.675Z,57.25
2022-09-30T11:24:30.678Z,61.93
2022-09-30T11:25:30.658Z,58.03
2022-09-30T11:26:30.704Z,60.87
2022-09-30T11:27:30.665Z,61.90
2022-09-30T11:28:30.633Z,59.30
2022-09-30T11:29:30.633Z,59.87
2022-09-30T11:30:30.617Z,59.14
2022-09-30T11:31:30.642Z,58.77
2022-09-30T11:32:30.622Z,56.67
2022-09-30T11:33:30.595Z,57.84
2022-09-30T11:34:30.585Z,59.25
2022-09-30T11:35:30.576Z,59.09
2022-09-30T11:36:30.688Z,60.01
2022-09-30T11:37:30.587Z,59.51
2022-09-30T11:38:30.553Z,58.37
2022-09-30T11:39:30.546Z,58.33
2022-09-30T11:40:30.536Z,58.84
2022-09-30T11:41:30.523Z,60.53
2022-09-30T11:42:30.544Z,60.67
2022-09-30T11:43:30.507Z,61.45
2022-09-30T11:44:30.504Z,58.81
2022-09-30T11:45:30.524Z,61.41
2022-09-30T11:46:30.601Z,56.93
2022-09-30T11:47:30.509Z,58.50
2022-09-30T11:48:32.832Z,61.66
2022-09-30T11:49:31.458Z,57.50
2022-09-30T11:50:30.454Z,57.20
2022-09-30T11:51:30.445Z,58.85
2022-09-30T11:52:30.462Z,59.18
2022-09-30T11:53:30.428Z,61.82
2022-09-30T11:54:30.421Z,57.54
2022-09-30T11:55:30.416Z,59.42
2022-09-30T11:56:30.826Z,60.91
2022-09-30T11:57:30.420Z,57.27
2022-09-30T11:58:41.557Z,59.40
2022-09-30T11:59:32.390Z,62.85
2022-09-30T12:00:30.359Z,63.84
2022-09-30T12:01:31.363Z,62.57
2022-09-30T12:02:30.435Z,61.88
2022-09-30T12:03:30.383Z,61.26
2022-09-30T12:04:30.340Z,63.05
2022-09-30T12:05:30.331Z,57.57
2022-09-30T12:06:30.725Z,58.79
2022-09-30T12:07:30.345Z,56.96
2022-09-30T12:08:30.309Z,57.02
2022-09-30T12:09:30.299Z,54.19
2022-09-30T12:10:30.291Z,55.82
2022-09-30T12:11:30.292Z,58.00
2022-09-30T12:12:30.303Z,57.78
2022-09-30T12:13:30.270Z,59.72
2022-09-30T12:14:30.259Z,57.21
2022-09-30T12:15:30.248Z,56.61
2022-09-30T12:16:30.591Z,59.50
2022-09-30T12:17:30.282Z,56.78
2022-09-30T12:18:30.230Z,59.22
2022-09-30T12:19:30.221Z,59.40
2022-09-30T12:20:30.240Z,60.80
2022-09-30T12:21:30.204Z,57.22
2022-09-30T12:22:30.224Z,58.72
2022-09-30T12:23:30.186Z,58.67
2022-09-30T12:24:30.178Z,59.29
2022-09-30T12:25:30.173Z,58.36
2022-09-30T12:26:30.526Z,55.70
2022-09-30T12:27:30.182Z,56.62
2022-09-30T12:28:30.210Z,57.20
2022-09-30T12:29:30.142Z,56.35
2022-09-30T12:30:30.136Z,60.09
2022-09-30T12:31:30.162Z,59.13
2022-09-30T12:32:30.138Z,59.48
2022-09-30T12:33:30.106Z,58.43
2022-09-30T12:34:31.093Z,58.28
2022-09-30T12:35:30.092Z,59.20
2022-09-30T12:36:30.453Z,59.05
2022-09-30T12:37:30.099Z,59.21
2022-09-30T12:38:30.065Z,57.20
2022-09-30T12:39:30.054Z,58.78
2022-09-30T12:40:30.047Z,56.73
2022-09-30T12:41:30.042Z,58.44
2022-09-30T12:42:30.057Z,61.07
2022-09-30T12:43:30.025Z,62.53
2022-09-30T12:44:30.022Z,59.16
2022-09-30T12:45:30.087Z,61.99
2022-09-30T12:46:30.291Z,60.65
2022-09-30T12:47:30.019Z,63.13
2022-09-30T12:48:29.984Z,61.41
2022-09-30T12:49:29.975Z,61.99
2022-09-30T12:50:29.965Z,59.59
2022-09-30T12:51:29.964Z,59.31
2022-09-30T12:52:29.984Z,58.44
2022-09-30T12:53:29.944Z,60.82